Impacts METAR Board
IDs:

KMDW - Chicago/Midway Intl, IL, US

Updated at: 1800 UTC 14 Aug 2018
Potential Impact None Slight Moderate High
Time 14/06Z 14/07Z 14/08Z 14/09Z 14/10Z 14/11Z 14/12Z 14/13Z 14/14Z 14/15Z 14/16Z 14/17Z 14/18Z
Temp77 74 72 72 70 70 71 75 79 83 85 86 88
Dewpt61 62 62 62 63 63 64 64 64 62 63 62 60
Altim30.01 30.00 29.99 29.99 29.99 30.00 30.00 30.00 30.01 30.00 30.00 30.00 29.99
VIS10 9 9 9 8 7 7 10 10 10 10 10 10
CIG-- -- -- -- -- -- -- -- -- -- -- -- --
CoverCLRCLRCLRCLRCLRFEWFEWCLRCLRCLRFEWFEWSCT
FltCatVFRVFRVFRVFRVFRVFRVFRVFRVFRVFRVFRVFRVFR
WX--------------------------
WDir00260027025023002402402800190
WSpd0 0 3 0 3 5 3 0 5 7 7 0 6
WGst-- -- -- -- -- -- -- -- -- -- -- -- --
Raw hourly METARs
KMDW 140553Z 00000KT 10SM CLR 25/16 A3001 RMK AO2 SLP150 T02500161 10289 20244 403170194 58006
KMDW 140653Z 00000KT 9SM CLR 23/17 A3000 RMK AO2 SLP147 T02330167
KMDW 140753Z 26003KT 9SM CLR 22/17 A2999 RMK AO2 SLP144 T02220167
KMDW 140853Z 00000KT 9SM CLR 22/17 A2999 RMK AO2 SLP142 T02220167 56008
KMDW 140953Z 27003KT 8SM CLR 21/17 A2999 RMK AO2 SLP144 T02110172
KMDW 141053Z 25005KT 7SM FEW050 21/17 A3000 RMK AO2 SLP148 T02110172
KMDW 141153Z 23003KT 7SM FEW050 22/18 A3000 RMK AO2 SLP149 T02170178 10244 20206 53006
KMDW 141253Z 00000KT 10SM CLR 24/18 A3000 RMK AO2 SLP149 T02390178
KMDW 141353Z 24005KT 10SM CLR 26/18 A3001 RMK AO2 SLP150 T02610178
KMDW 141453Z 24007KT 10SM CLR 28/17 A3000 RMK AO2 SLP148 T02830167 50000
KMDW 141553Z 28007KT 10SM FEW050 29/17 A3000 RMK AO2 SLP147 T02940172
KMDW 141653Z 00000KT 10SM FEW050 30/17 A3000 RMK AO2 SLP146 T03000167
KMDW 141753Z 19006KT 10SM SCT055 SCT250 31/16 A2999 RMK AO2 SLP143 T03110156 10311 20217 58005



Page loaded:  18:10 UTC  |   11:10 AM Pacific  |   12:10 PM Mountain  |   01:10 PM Central  |   02:10 PM Eastern

 

ADVISORIES

FORECASTS

FORECASTS

OBSERVATIONS

USER TOOLS

ABOUT US